sensor_id;sensor_type;location;lat;lon;timestamp;P1;durP1;ratioP1;P2;durP2;ratioP2
15216;SDS011;7711;46.634;14.318;2023-01-26T00:01:54;39.33;;;19.37;;
15216;SDS011;7711;46.634;14.318;2023-01-26T00:04:21;38.73;;;20.27;;
15216;SDS011;7711;46.634;14.318;2023-01-26T00:06:48;40.73;;;21.20;;
15216;SDS011;7711;46.634;14.318;2023-01-26T00:09:15;39.07;;;21.07;;
15216;SDS011;7711;46.634;14.318;2023-01-26T00:11:42;37.33;;;19.77;;
15216;SDS011;7711;46.634;14.318;2023-01-26T00:14:09;38.57;;;21.57;;
15216;SDS011;7711;46.634;14.318;2023-01-26T00:16:37;37.57;;;21.23;;
15216;SDS011;7711;46.634;14.318;2023-01-26T00:19:04;41.07;;;21.17;;
15216;SDS011;7711;46.634;14.318;2023-01-26T00:21:31;38.47;;;20.30;;
15216;SDS011;7711;46.634;14.318;2023-01-26T00:23:58;40.53;;;20.57;;
15216;SDS011;7711;46.634;14.318;2023-01-26T00:26:26;39.40;;;21.70;;
15216;SDS011;7711;46.634;14.318;2023-01-26T00:28:53;39.00;;;21.30;;
15216;SDS011;7711;46.634;14.318;2023-01-26T00:31:21;40.73;;;22.60;;
15216;SDS011;7711;46.634;14.318;2023-01-26T00:33:51;42.73;;;22.83;;
15216;SDS011;7711;46.634;14.318;2023-01-26T00:36:20;44.03;;;22.67;;
15216;SDS011;7711;46.634;14.318;2023-01-26T00:38:47;39.00;;;21.47;;
15216;SDS011;7711;46.634;14.318;2023-01-26T00:41:14;44.87;;;21.60;;
15216;SDS011;7711;46.634;14.318;2023-01-26T00:43:55;42.27;;;24.70;;
15216;SDS011;7711;46.634;14.318;2023-01-26T00:46:22;47.50;;;24.03;;
15216;SDS011;7711;46.634;14.318;2023-01-26T00:48:50;40.80;;;22.47;;
15216;SDS011;7711;46.634;14.318;2023-01-26T00:51:17;43.80;;;22.53;;
15216;SDS011;7711;46.634;14.318;2023-01-26T00:53:44;42.83;;;22.77;;
15216;SDS011;7711;46.634;14.318;2023-01-26T00:56:11;43.77;;;22.20;;
15216;SDS011;7711;46.634;14.318;2023-01-26T00:58:38;42.27;;;23.50;;
15216;SDS011;7711;46.634;14.318;2023-01-26T01:01:06;41.67;;;22.73;;
15216;SDS011;7711;46.634;14.318;2023-01-26T01:03:33;45.50;;;23.47;;
15216;SDS011;7711;46.634;14.318;2023-01-26T01:06:02;39.67;;;21.67;;
15216;SDS011;7711;46.634;14.318;2023-01-26T01:08:29;42.17;;;23.20;;
15216;SDS011;7711;46.634;14.318;2023-01-26T01:11:03;39.97;;;21.17;;
15216;SDS011;7711;46.634;14.318;2023-01-26T01:13:31;38.53;;;21.63;;
15216;SDS011;7711;46.634;14.318;2023-01-26T01:15:58;37.77;;;21.67;;
15216;SDS011;7711;46.634;14.318;2023-01-26T01:18:25;43.33;;;22.03;;
15216;SDS011;7711;46.634;14.318;2023-01-26T01:20:52;45.03;;;22.90;;
15216;SDS011;7711;46.634;14.318;2023-01-26T01:23:21;42.73;;;22.83;;
15216;SDS011;7711;46.634;14.318;2023-01-26T01:25:55;49.37;;;24.87;;
15216;SDS011;7711;46.634;14.318;2023-01-26T01:28:22;45.87;;;22.80;;
15216;SDS011;7711;46.634;14.318;2023-01-26T01:30:49;42.37;;;23.17;;
15216;SDS011;7711;46.634;14.318;2023-01-26T01:33:16;47.30;;;24.57;;
15216;SDS011;7711;46.634;14.318;2023-01-26T01:35:50;44.67;;;23.53;;
15216;SDS011;7711;46.634;14.318;2023-01-26T01:38:22;46.53;;;22.53;;
15216;SDS011;7711;46.634;14.318;2023-01-26T01:40:50;47.80;;;24.70;;
15216;SDS011;7711;46.634;14.318;2023-01-26T01:43:17;44.17;;;23.47;;
15216;SDS011;7711;46.634;14.318;2023-01-26T01:45:44;38.13;;;22.37;;
15216;SDS011;7711;46.634;14.318;2023-01-26T01:48:14;43.27;;;22.63;;
15216;SDS011;7711;46.634;14.318;2023-01-26T01:50:45;38.77;;;22.30;;
15216;SDS011;7711;46.634;14.318;2023-01-26T01:53:16;37.23;;;21.63;;
15216;SDS011;7711;46.634;14.318;2023-01-26T01:55:50;33.67;;;19.73;;
15216;SDS011;7711;46.634;14.318;2023-01-26T01:58:21;36.27;;;20.47;;
15216;SDS011;7711;46.634;14.318;2023-01-26T02:00:48;41.43;;;21.50;;
15216;SDS011;7711;46.634;14.318;2023-01-26T02:03:15;37.10;;;19.87;;
15216;SDS011;7711;46.634;14.318;2023-01-26T02:05:47;37.27;;;19.30;;
15216;SDS011;7711;46.634;14.318;2023-01-26T02:08:20;33.53;;;19.60;;
15216;SDS011;7711;46.634;14.318;2023-01-26T02:10:52;32.03;;;18.33;;
15216;SDS011;7711;46.634;14.318;2023-01-26T02:13:20;31.20;;;18.80;;
15216;SDS011;7711;46.634;14.318;2023-01-26T02:15:49;29.77;;;17.97;;
15216;SDS011;7711;46.634;14.318;2023-01-26T02:18:17;30.13;;;17.93;;
15216;SDS011;7711;46.634;14.318;2023-01-26T02:20:44;29.50;;;17.97;;
15216;SDS011;7711;46.634;14.318;2023-01-26T02:23:26;29.30;;;16.50;;
15216;SDS011;7711;46.634;14.318;2023-01-26T02:26:05;29.73;;;16.00;;
15216;SDS011;7711;46.634;14.318;2023-01-26T02:28:35;27.37;;;15.87;;
15216;SDS011;7711;46.634;14.318;2023-01-26T02:31:03;24.30;;;15.00;;
15216;SDS011;7711;46.634;14.318;2023-01-26T02:33:32;27.00;;;16.00;;
15216;SDS011;7711;46.634;14.318;2023-01-26T02:35:59;28.03;;;15.53;;
15216;SDS011;7711;46.634;14.318;2023-01-26T02:38:30;25.33;;;14.73;;
15216;SDS011;7711;46.634;14.318;2023-01-26T02:41:06;24.27;;;14.37;;
15216;SDS011;7711;46.634;14.318;2023-01-26T02:43:34;25.07;;;15.10;;
15216;SDS011;7711;46.634;14.318;2023-01-26T02:46:00;24.57;;;14.80;;
15216;SDS011;7711;46.634;14.318;2023-01-26T02:48:27;24.67;;;14.20;;
15216;SDS011;7711;46.634;14.318;2023-01-26T02:51:12;27.67;;;16.13;;
15216;SDS011;7711;46.634;14.318;2023-01-26T02:53:39;24.50;;;15.13;;
15216;SDS011;7711;46.634;14.318;2023-01-26T02:56:07;25.30;;;15.47;;
15216;SDS011;7711;46.634;14.318;2023-01-26T02:58:33;26.97;;;14.97;;
15216;SDS011;7711;46.634;14.318;2023-01-26T03:01:00;27.50;;;14.87;;
15216;SDS011;7711;46.634;14.318;2023-01-26T03:03:28;23.70;;;15.43;;
15216;SDS011;7711;46.634;14.318;2023-01-26T03:06:07;24.27;;;14.93;;
15216;SDS011;7711;46.634;14.318;2023-01-26T03:08:35;26.03;;;13.70;;
15216;SDS011;7711;46.634;14.318;2023-01-26T03:11:03;24.57;;;14.40;;
15216;SDS011;7711;46.634;14.318;2023-01-26T03:13:33;20.47;;;13.20;;
15216;SDS011;7711;46.634;14.318;2023-01-26T03:16:00;23.30;;;14.27;;
15216;SDS011;7711;46.634;14.318;2023-01-26T03:18:31;26.27;;;14.87;;
15216;SDS011;7711;46.634;14.318;2023-01-26T03:21:16;25.47;;;14.60;;
15216;SDS011;7711;46.634;14.318;2023-01-26T03:24:01;24.13;;;14.07;;
15216;SDS011;7711;46.634;14.318;2023-01-26T03:26:46;22.33;;;13.50;;
15216;SDS011;7711;46.634;14.318;2023-01-26T03:29:32;24.93;;;14.03;;
15216;SDS011;7711;46.634;14.318;2023-01-26T03:31:59;24.67;;;13.57;;
15216;SDS011;7711;46.634;14.318;2023-01-26T03:34:26;20.13;;;12.87;;
15216;SDS011;7711;46.634;14.318;2023-01-26T03:36:54;23.70;;;12.63;;
15216;SDS011;7711;46.634;14.318;2023-01-26T03:39:21;22.73;;;13.70;;
15216;SDS011;7711;46.634;14.318;2023-01-26T03:42:06;19.50;;;12.63;;
15216;SDS011;7711;46.634;14.318;2023-01-26T03:44:52;21.10;;;12.73;;
15216;SDS011;7711;46.634;14.318;2023-01-26T03:47:36;23.07;;;13.30;;
15216;SDS011;7711;46.634;14.318;2023-01-26T03:50:21;20.27;;;13.47;;
15216;SDS011;7711;46.634;14.318;2023-01-26T03:53:13;23.73;;;14.23;;
15216;SDS011;7711;46.634;14.318;2023-01-26T03:55:58;25.70;;;13.97;;
15216;SDS011;7711;46.634;14.318;2023-01-26T03:58:46;21.70;;;13.87;;
15216;SDS011;7711;46.634;14.318;2023-01-26T04:01:15;21.00;;;13.30;;
15216;SDS011;7711;46.634;14.318;2023-01-26T04:03:45;23.40;;;13.87;;
15216;SDS011;7711;46.634;14.318;2023-01-26T04:06:30;22.40;;;13.50;;
15216;SDS011;7711;46.634;14.318;2023-01-26T04:09:14;24.43;;;14.07;;
15216;SDS011;7711;46.634;14.318;2023-01-26T04:11:41;24.13;;;15.30;;
15216;SDS011;7711;46.634;14.318;2023-01-26T04:14:09;25.27;;;14.97;;
15216;SDS011;7711;46.634;14.318;2023-01-26T04:16:56;23.47;;;14.70;;
15216;SDS011;7711;46.634;14.318;2023-01-26T04:19:41;21.77;;;13.53;;
15216;SDS011;7711;46.634;14.318;2023-01-26T04:22:25;24.27;;;14.43;;
15216;SDS011;7711;46.634;14.318;2023-01-26T04:24:52;25.80;;;15.23;;
15216;SDS011;7711;46.634;14.318;2023-01-26T04:27:21;23.83;;;15.57;;
15216;SDS011;7711;46.634;14.318;2023-01-26T04:29:48;26.20;;;14.57;;
15216;SDS011;7711;46.634;14.318;2023-01-26T04:32:17;22.43;;;15.00;;
15216;SDS011;7711;46.634;14.318;2023-01-26T04:34:44;24.47;;;14.33;;
15216;SDS011;7711;46.634;14.318;2023-01-26T04:37:11;27.67;;;15.57;;
15216;SDS011;7711;46.634;14.318;2023-01-26T04:39:38;26.03;;;15.23;;
15216;SDS011;7711;46.634;14.318;2023-01-26T04:42:05;22.57;;;14.23;;
15216;SDS011;7711;46.634;14.318;2023-01-26T04:44:32;28.17;;;15.60;;
15216;SDS011;7711;46.634;14.318;2023-01-26T04:46:59;26.13;;;15.83;;
15216;SDS011;7711;46.634;14.318;2023-01-26T04:49:28;23.93;;;15.20;;
15216;SDS011;7711;46.634;14.318;2023-01-26T04:51:55;25.03;;;15.67;;
15216;SDS011;7711;46.634;14.318;2023-01-26T04:54:22;24.90;;;15.70;;
15216;SDS011;7711;46.634;14.318;2023-01-26T04:56:50;28.47;;;16.47;;
15216;SDS011;7711;46.634;14.318;2023-01-26T04:59:17;28.80;;;16.50;;
15216;SDS011;7711;46.634;14.318;2023-01-26T05:01:44;25.97;;;16.33;;
15216;SDS011;7711;46.634;14.318;2023-01-26T05:04:12;29.50;;;17.57;;
15216;SDS011;7711;46.634;14.318;2023-01-26T05:06:41;26.93;;;15.90;;
15216;SDS011;7711;46.634;14.318;2023-01-26T05:09:08;30.93;;;16.37;;
15216;SDS011;7711;46.634;14.318;2023-01-26T05:11:35;26.60;;;15.50;;
15216;SDS011;7711;46.634;14.318;2023-01-26T05:14:03;27.30;;;16.40;;
15216;SDS011;7711;46.634;14.318;2023-01-26T05:16:30;26.07;;;15.60;;
15216;SDS011;7711;46.634;14.318;2023-01-26T05:18:57;26.00;;;15.83;;
15216;SDS011;7711;46.634;14.318;2023-01-26T05:21:24;31.33;;;17.40;;
15216;SDS011;7711;46.634;14.318;2023-01-26T05:23:59;29.63;;;16.77;;
15216;SDS011;7711;46.634;14.318;2023-01-26T05:26:26;27.83;;;16.30;;
15216;SDS011;7711;46.634;14.318;2023-01-26T05:28:53;34.77;;;18.43;;
15216;SDS011;7711;46.634;14.318;2023-01-26T05:31:20;52.37;;;27.87;;
15216;SDS011;7711;46.634;14.318;2023-01-26T05:33:47;47.00;;;25.87;;
15216;SDS011;7711;46.634;14.318;2023-01-26T05:36:14;56.30;;;29.57;;
15216;SDS011;7711;46.634;14.318;2023-01-26T05:38:41;48.03;;;25.13;;
15216;SDS011;7711;46.634;14.318;2023-01-26T05:41:10;47.67;;;25.43;;
15216;SDS011;7711;46.634;14.318;2023-01-26T05:43:37;44.23;;;24.23;;
15216;SDS011;7711;46.634;14.318;2023-01-26T05:46:04;43.00;;;23.63;;
15216;SDS011;7711;46.634;14.318;2023-01-26T05:48:31;43.83;;;23.83;;
15216;SDS011;7711;46.634;14.318;2023-01-26T05:50:58;37.87;;;20.97;;
15216;SDS011;7711;46.634;14.318;2023-01-26T05:53:25;33.97;;;18.93;;
15216;SDS011;7711;46.634;14.318;2023-01-26T05:55:52;34.83;;;19.50;;
15216;SDS011;7711;46.634;14.318;2023-01-26T05:58:20;31.50;;;18.53;;
15216;SDS011;7711;46.634;14.318;2023-01-26T06:00:47;31.43;;;17.73;;
15216;SDS011;7711;46.634;14.318;2023-01-26T06:03:14;35.00;;;18.97;;
15216;SDS011;7711;46.634;14.318;2023-01-26T06:05:41;32.93;;;17.63;;
15216;SDS011;7711;46.634;14.318;2023-01-26T06:08:08;31.13;;;18.90;;
15216;SDS011;7711;46.634;14.318;2023-01-26T06:10:35;29.30;;;16.90;;
15216;SDS011;7711;46.634;14.318;2023-01-26T06:13:02;29.30;;;17.60;;
15216;SDS011;7711;46.634;14.318;2023-01-26T06:15:30;30.00;;;17.47;;
15216;SDS011;7711;46.634;14.318;2023-01-26T06:17:59;31.57;;;18.00;;
15216;SDS011;7711;46.634;14.318;2023-01-26T06:20:26;28.50;;;17.67;;
15216;SDS011;7711;46.634;14.318;2023-01-26T06:22:53;34.87;;;20.03;;
15216;SDS011;7711;46.634;14.318;2023-01-26T06:25:25;30.27;;;18.47;;
15216;SDS011;7711;46.634;14.318;2023-01-26T06:27:55;31.20;;;19.13;;
15216;SDS011;7711;46.634;14.318;2023-01-26T06:30:23;30.30;;;18.37;;
15216;SDS011;7711;46.634;14.318;2023-01-26T06:32:51;30.73;;;17.50;;
15216;SDS011;7711;46.634;14.318;2023-01-26T06:35:18;30.67;;;17.27;;
15216;SDS011;7711;46.634;14.318;2023-01-26T06:37:46;30.17;;;17.87;;
15216;SDS011;7711;46.634;14.318;2023-01-26T06:40:15;32.10;;;18.53;;
15216;SDS011;7711;46.634;14.318;2023-01-26T06:42:46;29.37;;;18.20;;
15216;SDS011;7711;46.634;14.318;2023-01-26T06:45:14;31.33;;;17.77;;
15216;SDS011;7711;46.634;14.318;2023-01-26T06:47:43;33.70;;;19.43;;
15216;SDS011;7711;46.634;14.318;2023-01-26T06:50:12;35.17;;;19.90;;
15216;SDS011;7711;46.634;14.318;2023-01-26T06:52:40;34.60;;;19.23;;
15216;SDS011;7711;46.634;14.318;2023-01-26T06:55:13;31.57;;;19.07;;
15216;SDS011;7711;46.634;14.318;2023-01-26T06:57:42;32.40;;;17.70;;
15216;SDS011;7711;46.634;14.318;2023-01-26T07:00:10;31.77;;;17.57;;
15216;SDS011;7711;46.634;14.318;2023-01-26T07:02:38;28.93;;;16.97;;
15216;SDS011;7711;46.634;14.318;2023-01-26T07:05:06;31.30;;;17.97;;
15216;SDS011;7711;46.634;14.318;2023-01-26T07:07:34;27.93;;;16.07;;
15216;SDS011;7711;46.634;14.318;2023-01-26T07:10:01;27.70;;;16.37;;
15216;SDS011;7711;46.634;14.318;2023-01-26T07:12:39;26.23;;;16.23;;
15216;SDS011;7711;46.634;14.318;2023-01-26T07:15:08;27.10;;;15.67;;
15216;SDS011;7711;46.634;14.318;2023-01-26T07:17:37;25.73;;;15.97;;
15216;SDS011;7711;46.634;14.318;2023-01-26T07:20:04;28.93;;;16.70;;
15216;SDS011;7711;46.634;14.318;2023-01-26T07:22:32;27.27;;;16.73;;
15216;SDS011;7711;46.634;14.318;2023-01-26T07:25:00;26.73;;;14.87;;
15216;SDS011;7711;46.634;14.318;2023-01-26T07:27:28;26.40;;;15.93;;
15216;SDS011;7711;46.634;14.318;2023-01-26T07:29:55;26.93;;;15.90;;
15216;SDS011;7711;46.634;14.318;2023-01-26T07:32:22;23.77;;;14.50;;
15216;SDS011;7711;46.634;14.318;2023-01-26T07:34:49;23.27;;;13.90;;
15216;SDS011;7711;46.634;14.318;2023-01-26T07:37:16;21.53;;;13.37;;
15216;SDS011;7711;46.634;14.318;2023-01-26T07:39:43;21.87;;;13.43;;
15216;SDS011;7711;46.634;14.318;2023-01-26T07:42:11;22.07;;;13.77;;
15216;SDS011;7711;46.634;14.318;2023-01-26T07:44:39;24.93;;;14.23;;
15216;SDS011;7711;46.634;14.318;2023-01-26T07:47:06;22.00;;;14.60;;
15216;SDS011;7711;46.634;14.318;2023-01-26T07:49:33;23.80;;;14.37;;
15216;SDS011;7711;46.634;14.318;2023-01-26T07:52:00;24.53;;;14.93;;
15216;SDS011;7711;46.634;14.318;2023-01-26T07:54:27;24.57;;;15.50;;
15216;SDS011;7711;46.634;14.318;2023-01-26T07:56:54;22.40;;;14.37;;
15216;SDS011;7711;46.634;14.318;2023-01-26T07:59:23;24.33;;;14.97;;
15216;SDS011;7711;46.634;14.318;2023-01-26T08:01:50;21.67;;;14.47;;
15216;SDS011;7711;46.634;14.318;2023-01-26T08:04:20;24.77;;;14.33;;
15216;SDS011;7711;46.634;14.318;2023-01-26T08:06:49;22.70;;;13.73;;
15216;SDS011;7711;46.634;14.318;2023-01-26T08:09:17;21.53;;;13.93;;
15216;SDS011;7711;46.634;14.318;2023-01-26T08:11:44;22.93;;;14.17;;
15216;SDS011;7711;46.634;14.318;2023-01-26T08:14:11;23.17;;;13.67;;
15216;SDS011;7711;46.634;14.318;2023-01-26T08:16:39;21.87;;;14.00;;
15216;SDS011;7711;46.634;14.318;2023-01-26T08:19:06;21.60;;;13.73;;
15216;SDS011;7711;46.634;14.318;2023-01-26T08:21:33;20.67;;;12.63;;
15216;SDS011;7711;46.634;14.318;2023-01-26T08:24:01;20.20;;;12.73;;
15216;SDS011;7711;46.634;14.318;2023-01-26T08:26:28;18.60;;;11.73;;
15216;SDS011;7711;46.634;14.318;2023-01-26T08:28:55;20.60;;;12.60;;
15216;SDS011;7711;46.634;14.318;2023-01-26T08:31:22;18.67;;;11.80;;
15216;SDS011;7711;46.634;14.318;2023-01-26T08:33:51;19.03;;;11.87;;
15216;SDS011;7711;46.634;14.318;2023-01-26T08:36:19;22.50;;;12.27;;
15216;SDS011;7711;46.634;14.318;2023-01-26T08:38:47;18.97;;;12.13;;
15216;SDS011;7711;46.634;14.318;2023-01-26T08:41:14;20.33;;;12.17;;
15216;SDS011;7711;46.634;14.318;2023-01-26T08:43:41;17.07;;;11.03;;
15216;SDS011;7711;46.634;14.318;2023-01-26T08:46:08;17.93;;;11.67;;
15216;SDS011;7711;46.634;14.318;2023-01-26T08:48:35;20.40;;;12.53;;
15216;SDS011;7711;46.634;14.318;2023-01-26T08:51:04;19.50;;;12.23;;
15216;SDS011;7711;46.634;14.318;2023-01-26T08:53:33;17.60;;;11.67;;
15216;SDS011;7711;46.634;14.318;2023-01-26T08:56:02;17.77;;;11.87;;
15216;SDS011;7711;46.634;14.318;2023-01-26T08:58:30;16.17;;;10.73;;
15216;SDS011;7711;46.634;14.318;2023-01-26T09:00:58;14.77;;;10.70;;
15216;SDS011;7711;46.634;14.318;2023-01-26T09:03:25;13.60;;;9.53;;
15216;SDS011;7711;46.634;14.318;2023-01-26T09:05:52;13.47;;;9.30;;
15216;SDS011;7711;46.634;14.318;2023-01-26T09:08:25;16.60;;;10.27;;
15216;SDS011;7711;46.634;14.318;2023-01-26T09:10:53;14.67;;;10.40;;
15216;SDS011;7711;46.634;14.318;2023-01-26T09:13:20;16.27;;;9.93;;
15216;SDS011;7711;46.634;14.318;2023-01-26T09:15:47;28.07;;;17.97;;
15216;SDS011;7711;46.634;14.318;2023-01-26T09:18:14;16.77;;;12.43;;
15216;SDS011;7711;46.634;14.318;2023-01-26T09:20:42;200.03;;;121.40;;
15216;SDS011;7711;46.634;14.318;2023-01-26T09:23:09;113.57;;;74.03;;
15216;SDS011;7711;46.634;14.318;2023-01-26T09:25:38;38.37;;;27.83;;
15216;SDS011;7711;46.634;14.318;2023-01-26T09:28:05;105.97;;;63.93;;
15216;SDS011;7711;46.634;14.318;2023-01-26T09:30:32;91.83;;;55.83;;
15216;SDS011;7711;46.634;14.318;2023-01-26T09:33:00;31.13;;;20.83;;
15216;SDS011;7711;46.634;14.318;2023-01-26T09:35:29;18.67;;;12.80;;
15216;SDS011;7711;46.634;14.318;2023-01-26T09:37:56;15.70;;;11.10;;
15216;SDS011;7711;46.634;14.318;2023-01-26T09:40:25;15.53;;;9.67;;
15216;SDS011;7711;46.634;14.318;2023-01-26T09:43:06;13.57;;;9.40;;
15216;SDS011;7711;46.634;14.318;2023-01-26T09:45:45;15.20;;;10.00;;
15216;SDS011;7711;46.634;14.318;2023-01-26T09:48:21;16.60;;;10.43;;
15216;SDS011;7711;46.634;14.318;2023-01-26T09:50:58;15.20;;;10.07;;
15216;SDS011;7711;46.634;14.318;2023-01-26T09:53:38;14.50;;;9.20;;
15216;SDS011;7711;46.634;14.318;2023-01-26T09:56:12;16.37;;;10.50;;
15216;SDS011;7711;46.634;14.318;2023-01-26T09:58:44;14.30;;;9.50;;
15216;SDS011;7711;46.634;14.318;2023-01-26T10:01:16;13.13;;;9.67;;
15216;SDS011;7711;46.634;14.318;2023-01-26T10:03:49;15.53;;;10.77;;
15216;SDS011;7711;46.634;14.318;2023-01-26T10:06:22;13.40;;;9.50;;
15216;SDS011;7711;46.634;14.318;2023-01-26T10:08:52;13.83;;;8.87;;
15216;SDS011;7711;46.634;14.318;2023-01-26T10:11:23;12.87;;;8.57;;
15216;SDS011;7711;46.634;14.318;2023-01-26T10:13:55;12.43;;;8.60;;
15216;SDS011;7711;46.634;14.318;2023-01-26T10:16:25;11.43;;;8.13;;
15216;SDS011;7711;46.634;14.318;2023-01-26T10:18:53;11.27;;;8.00;;
15216;SDS011;7711;46.634;14.318;2023-01-26T10:21:24;12.83;;;8.30;;
15216;SDS011;7711;46.634;14.318;2023-01-26T10:23:56;12.20;;;8.63;;
15216;SDS011;7711;46.634;14.318;2023-01-26T10:26:29;10.33;;;7.50;;
15216;SDS011;7711;46.634;14.318;2023-01-26T10:28:59;12.00;;;8.80;;
15216;SDS011;7711;46.634;14.318;2023-01-26T10:31:27;12.77;;;8.17;;
15216;SDS011;7711;46.634;14.318;2023-01-26T10:33:57;11.23;;;8.13;;
15216;SDS011;7711;46.634;14.318;2023-01-26T10:36:27;11.50;;;8.10;;
15216;SDS011;7711;46.634;14.318;2023-01-26T10:39:01;11.77;;;8.47;;
15216;SDS011;7711;46.634;14.318;2023-01-26T10:41:30;14.03;;;8.30;;
15216;SDS011;7711;46.634;14.318;2023-01-26T10:43:59;16.70;;;9.03;;
15216;SDS011;7711;46.634;14.318;2023-01-26T10:46:30;13.93;;;8.60;;
15216;SDS011;7711;46.634;14.318;2023-01-26T10:48:59;14.23;;;8.50;;
15216;SDS011;7711;46.634;14.318;2023-01-26T10:51:28;16.10;;;8.73;;
15216;SDS011;7711;46.634;14.318;2023-01-26T10:54:12;12.13;;;7.80;;
15216;SDS011;7711;46.634;14.318;2023-01-26T10:56:45;20.40;;;9.10;;
15216;SDS011;7711;46.634;14.318;2023-01-26T10:59:18;11.70;;;7.83;;
15216;SDS011;7711;46.634;14.318;2023-01-26T11:01:52;13.03;;;8.40;;
15216;SDS011;7711;46.634;14.318;2023-01-26T11:04:21;13.97;;;8.53;;
15216;SDS011;7711;46.634;14.318;2023-01-26T11:06:49;13.93;;;8.87;;
15216;SDS011;7711;46.634;14.318;2023-01-26T11:09:18;11.50;;;7.73;;
15216;SDS011;7711;46.634;14.318;2023-01-26T11:11:55;12.00;;;8.00;;
15216;SDS011;7711;46.634;14.318;2023-01-26T11:14:26;15.13;;;9.27;;
15216;SDS011;7711;46.634;14.318;2023-01-26T11:16:56;13.53;;;8.83;;
15216;SDS011;7711;46.634;14.318;2023-01-26T11:19:37;12.80;;;8.50;;
15216;SDS011;7711;46.634;14.318;2023-01-26T11:22:17;14.03;;;8.33;;
15216;SDS011;7711;46.634;14.318;2023-01-26T11:24:48;12.67;;;8.73;;
15216;SDS011;7711;46.634;14.318;2023-01-26T11:27:32;12.97;;;8.90;;
15216;SDS011;7711;46.634;14.318;2023-01-26T11:30:08;12.00;;;7.33;;
15216;SDS011;7711;46.634;14.318;2023-01-26T11:32:58;10.33;;;7.87;;
15216;SDS011;7711;46.634;14.318;2023-01-26T11:35:31;12.93;;;8.40;;
15216;SDS011;7711;46.634;14.318;2023-01-26T11:38:11;12.80;;;8.33;;
15216;SDS011;7711;46.634;14.318;2023-01-26T11:40:50;13.47;;;7.87;;
15216;SDS011;7711;46.634;14.318;2023-01-26T11:43:31;11.23;;;7.37;;
15216;SDS011;7711;46.634;14.318;2023-01-26T11:46:19;12.37;;;8.13;;
15216;SDS011;7711;46.634;14.318;2023-01-26T11:49:10;13.97;;;7.83;;
15216;SDS011;7711;46.634;14.318;2023-01-26T11:51:53;10.33;;;7.40;;
15216;SDS011;7711;46.634;14.318;2023-01-26T11:54:29;13.33;;;7.50;;
15216;SDS011;7711;46.634;14.318;2023-01-26T11:57:23;12.60;;;7.73;;
15216;SDS011;7711;46.634;14.318;2023-01-26T12:00:03;12.50;;;7.83;;
15216;SDS011;7711;46.634;14.318;2023-01-26T12:02:42;12.70;;;8.27;;
15216;SDS011;7711;46.634;14.318;2023-01-26T12:05:14;13.00;;;7.97;;
15216;SDS011;7711;46.634;14.318;2023-01-26T12:07:46;11.40;;;7.90;;
15216;SDS011;7711;46.634;14.318;2023-01-26T12:10:20;11.57;;;8.23;;
15216;SDS011;7711;46.634;14.318;2023-01-26T12:12:54;12.23;;;8.17;;
15216;SDS011;7711;46.634;14.318;2023-01-26T12:15:27;15.90;;;8.90;;
15216;SDS011;7711;46.634;14.318;2023-01-26T12:18:03;15.40;;;8.17;;
15216;SDS011;7711;46.634;14.318;2023-01-26T12:20:37;12.83;;;8.30;;
15216;SDS011;7711;46.634;14.318;2023-01-26T12:23:10;12.13;;;8.07;;
15216;SDS011;7711;46.634;14.318;2023-01-26T12:25:44;11.57;;;8.07;;
15216;SDS011;7711;46.634;14.318;2023-01-26T12:28:17;12.67;;;8.20;;
15216;SDS011;7711;46.634;14.318;2023-01-26T12:30:53;13.17;;;7.60;;
15216;SDS011;7711;46.634;14.318;2023-01-26T12:33:26;13.80;;;8.73;;
15216;SDS011;7711;46.634;14.318;2023-01-26T12:36:00;14.73;;;8.60;;
15216;SDS011;7711;46.634;14.318;2023-01-26T12:38:39;12.13;;;8.43;;
15216;SDS011;7711;46.634;14.318;2023-01-26T12:41:15;13.20;;;8.53;;
15216;SDS011;7711;46.634;14.318;2023-01-26T12:43:54;13.77;;;9.10;;
15216;SDS011;7711;46.634;14.318;2023-01-26T12:46:30;12.23;;;8.23;;
15216;SDS011;7711;46.634;14.318;2023-01-26T12:49:03;11.97;;;8.23;;
15216;SDS011;7711;46.634;14.318;2023-01-26T12:51:36;13.37;;;8.23;;
15216;SDS011;7711;46.634;14.318;2023-01-26T12:54:07;13.27;;;8.97;;
15216;SDS011;7711;46.634;14.318;2023-01-26T12:56:44;15.43;;;9.63;;
15216;SDS011;7711;46.634;14.318;2023-01-26T12:59:14;13.83;;;9.63;;
15216;SDS011;7711;46.634;14.318;2023-01-26T13:01:45;15.57;;;9.80;;
15216;SDS011;7711;46.634;14.318;2023-01-26T13:04:14;16.50;;;9.47;;
15216;SDS011;7711;46.634;14.318;2023-01-26T13:06:42;15.10;;;9.37;;
15216;SDS011;7711;46.634;14.318;2023-01-26T13:09:20;15.67;;;9.87;;
15216;SDS011;7711;46.634;14.318;2023-01-26T13:11:49;15.90;;;9.97;;
15216;SDS011;7711;46.634;14.318;2023-01-26T13:14:25;15.93;;;9.87;;
15216;SDS011;7711;46.634;14.318;2023-01-26T13:16:58;15.37;;;10.13;;
15216;SDS011;7711;46.634;14.318;2023-01-26T13:26:24;15.17;;;9.37;;
15216;SDS011;7711;46.634;14.318;2023-01-26T13:29:25;17.77;;;11.23;;
15216;SDS011;7711;46.634;14.318;2023-01-26T13:31:56;19.30;;;12.67;;
15216;SDS011;7711;46.634;14.318;2023-01-26T13:34:25;17.77;;;12.07;;
15216;SDS011;7711;46.634;14.318;2023-01-26T13:36:54;19.17;;;12.97;;
15216;SDS011;7711;46.634;14.318;2023-01-26T13:39:33;22.77;;;12.77;;
15216;SDS011;7711;46.634;14.318;2023-01-26T13:42:09;18.17;;;11.27;;
15216;SDS011;7711;46.634;14.318;2023-01-26T13:44:46;16.97;;;10.57;;
15216;SDS011;7711;46.634;14.318;2023-01-26T13:47:19;19.23;;;11.37;;
15216;SDS011;7711;46.634;14.318;2023-01-26T13:49:49;13.77;;;9.37;;
15216;SDS011;7711;46.634;14.318;2023-01-26T13:52:17;17.57;;;10.57;;
15216;SDS011;7711;46.634;14.318;2023-01-26T13:54:48;15.83;;;9.97;;
15216;SDS011;7711;46.634;14.318;2023-01-26T13:57:19;16.40;;;10.17;;
15216;SDS011;7711;46.634;14.318;2023-01-26T13:59:48;18.83;;;9.90;;
15216;SDS011;7711;46.634;14.318;2023-01-26T14:02:23;15.67;;;9.90;;
15216;SDS011;7711;46.634;14.318;2023-01-26T14:04:52;15.37;;;9.90;;
15216;SDS011;7711;46.634;14.318;2023-01-26T14:07:23;19.67;;;10.50;;
15216;SDS011;7711;46.634;14.318;2023-01-26T14:09:53;16.87;;;10.70;;
15216;SDS011;7711;46.634;14.318;2023-01-26T14:12:23;17.60;;;10.63;;
15216;SDS011;7711;46.634;14.318;2023-01-26T14:14:53;17.53;;;10.30;;
15216;SDS011;7711;46.634;14.318;2023-01-26T14:17:24;17.70;;;10.40;;
15216;SDS011;7711;46.634;14.318;2023-01-26T14:19:52;16.73;;;10.33;;
15216;SDS011;7711;46.634;14.318;2023-01-26T14:22:19;18.07;;;10.30;;
15216;SDS011;7711;46.634;14.318;2023-01-26T14:24:47;20.23;;;11.10;;
15216;SDS011;7711;46.634;14.318;2023-01-26T14:27:23;17.03;;;10.83;;
15216;SDS011;7711;46.634;14.318;2023-01-26T14:29:57;19.20;;;11.40;;
15216;SDS011;7711;46.634;14.318;2023-01-26T14:32:24;25.03;;;13.87;;
15216;SDS011;7711;46.634;14.318;2023-01-26T14:34:54;18.17;;;12.53;;
15216;SDS011;7711;46.634;14.318;2023-01-26T14:37:22;18.37;;;11.17;;
15216;SDS011;7711;46.634;14.318;2023-01-26T14:42:44;18.90;;;11.17;;
15216;SDS011;7711;46.634;14.318;2023-01-26T14:45:13;17.80;;;11.10;;
15216;SDS011;7711;46.634;14.318;2023-01-26T14:47:40;15.97;;;10.43;;
15216;SDS011;7711;46.634;14.318;2023-01-26T14:50:10;18.60;;;11.07;;
15216;SDS011;7711;46.634;14.318;2023-01-26T14:52:43;19.90;;;11.07;;
15216;SDS011;7711;46.634;14.318;2023-01-26T14:55:12;18.67;;;11.50;;